MET'MAP v2.0
soon released !

Expected late october,
this new version will be
more efficient, smarter,
and hosted on a brand new
server x3 powerfull...
...and still free !


Not compatible ?
Try the mobile version !

LOG IN : | Subscribe | Disclaimer | Who is Orbifly ? |
ICAO code :

TAF - LTAU Erkilet AB - 02 Jun 2020 03:08 UTC - Data Source NOAA   


- Airport Elevation : 3463 ft
- IATA code : ASR
- No reported NOTAMs.


LTAU - Erkilet AB

Latest METAR recorded : 2015/08/11 07:50 LTAU 110750Z 20004KT 140V310 9999 FEW040 29/15 Q1013 NOSIG
TAF TAF LTAU
Valid from the 02 at 00:00 until the 03 at 00:00 UTC


012240Z 0200/0224 VRB02KT 9999 SCT040 BKN100
TEMPO 0208/0212 18015G25KT -TSRA FEW025CB BKN030
TEMPO 0212/0216 18015G25KT -TSRA FEW025CB BKN030
TEMPO 0216/0220 18015G25KT -TSRA FEW025CB BKN030

Source NOAA


MET'MAP, your aeronautical weather chart ! - Copyright ORBIFLY December 2007

Programming & Development : Alexandra Zaïnal
Co-Developer : Marc-Olivier Méhu
Technical & hardware support : Manuel Goepfert
Concept & Financing : Baudouin d'Aumeries